createdAt,value
2019-03-02T00:00:45.459Z,52.40
2019-03-02T00:03:14.372Z,60.00
2019-03-02T00:05:43.294Z,57.20
2019-03-02T00:08:12.294Z,63.40
2019-03-02T00:10:44.586Z,62.40
2019-03-02T00:13:11.797Z,58.77
2019-03-02T00:15:40.805Z,59.63
2019-03-02T00:18:09.809Z,56.43
2019-03-02T00:20:38.665Z,62.20
2019-03-02T00:23:07.617Z,67.07
2019-03-02T00:25:36.727Z,69.23
2019-03-02T00:28:06.003Z,56.00
2019-03-02T00:30:35.026Z,69.90
2019-03-02T00:33:04.627Z,56.87
2019-03-02T00:35:33.558Z,57.83
2019-03-02T00:38:08.793Z,64.47
2019-03-02T00:40:35.689Z,59.90
2019-03-02T00:43:04.694Z,60.17
2019-03-02T00:45:33.734Z,57.73
2019-03-02T00:48:02.885Z,59.50
2019-03-02T00:50:33.631Z,62.53
2019-03-02T00:53:02.634Z,54.80
2019-03-02T00:55:31.778Z,58.57
2019-03-02T00:58:01.736Z,63.93
2019-03-02T01:00:30.764Z,62.50
2019-03-02T01:03:00.014Z,64.70
2019-03-02T01:05:29.014Z,60.77
2019-03-02T01:07:59.767Z,59.07
2019-03-02T01:10:28.980Z,69.13
2019-03-02T01:12:58.055Z,76.77
2019-03-02T01:15:27.002Z,67.47
2019-03-02T01:17:55.925Z,68.53
2019-03-02T01:20:28.563Z,53.03
2019-03-02T01:22:55.702Z,68.83
2019-03-02T01:25:24.701Z,70.53
2019-03-02T01:27:54.988Z,66.57
2019-03-02T01:30:26.620Z,64.33
2019-03-02T01:32:55.264Z,57.03
2019-03-02T01:35:24.265Z,60.50
2019-03-02T01:37:53.301Z,69.50
2019-03-02T01:40:22.310Z,63.47
2019-03-02T01:42:51.239Z,78.30
2019-03-02T01:45:24.032Z,61.17
2019-03-02T01:47:52.613Z,57.97
2019-03-02T01:50:21.608Z,63.50
2019-03-02T01:52:50.630Z,57.37
2019-03-02T01:55:19.626Z,56.10
2019-03-02T01:57:48.960Z,53.27
2019-03-02T02:00:24.106Z,51.47
2019-03-02T02:02:53.126Z,53.60
2019-03-02T02:05:22.552Z,60.23
2019-03-02T02:07:54.273Z,54.93
2019-03-02T02:10:22.361Z,60.57
2019-03-02T02:12:51.462Z,59.37
2019-03-02T02:15:21.455Z,60.87
2019-03-02T02:17:53.036Z,59.80
2019-03-02T02:20:21.291Z,78.63
2019-03-02T02:22:50.297Z,54.57
2019-03-02T02:25:19.323Z,58.13
2019-03-02T02:27:48.318Z,61.43
2019-03-02T02:30:26.680Z,59.17
2019-03-02T02:33:03.142Z,61.13
2019-03-02T02:35:26.328Z,58.97
2019-03-02T02:37:55.358Z,66.20
2019-03-02T02:40:24.606Z,52.00
2019-03-02T02:42:53.631Z,67.03
2019-03-02T02:45:23.151Z,61.97
2019-03-02T02:47:54.389Z,56.73
2019-03-02T02:50:29.135Z,55.23
2019-03-02T02:52:53.621Z,60.70
2019-03-02T02:55:22.538Z,60.57
2019-03-02T02:57:51.437Z,59.37
2019-03-02T03:00:22.524Z,51.90
2019-03-02T03:02:51.539Z,58.77
2019-03-02T03:05:20.561Z,56.90
2019-03-02T03:07:53.458Z,58.63
2019-03-02T03:10:33.269Z,59.77
2019-03-02T03:13:04.245Z,57.67
2019-03-02T03:15:50.189Z,50.87
2019-03-02T03:18:19.252Z,58.40
2019-03-02T03:20:50.196Z,55.83
2019-03-02T03:23:24.973Z,58.57
2019-03-02T03:25:57.070Z,61.40
2019-03-02T03:28:25.939Z,61.53
2019-03-02T03:30:54.252Z,74.93
2019-03-02T03:33:23.939Z,54.73
2019-03-02T03:35:56.079Z,65.00
2019-03-02T03:38:24.918Z,64.40
2019-03-02T03:40:54.201Z,64.77
2019-03-02T03:43:23.115Z,64.90
2019-03-02T03:45:51.961Z,60.50
2019-03-02T03:48:20.974Z,63.27
2019-03-02T03:50:52.619Z,62.37
2019-03-02T03:53:21.752Z,64.03
2019-03-02T03:55:51.511Z,52.83
2019-03-02T03:58:20.723Z,59.97
2019-03-02T04:00:49.720Z,59.80
2019-03-02T04:03:18.667Z,63.40
2019-03-02T04:05:48.740Z,56.40
2019-03-02T04:08:17.814Z,57.23
2019-03-02T04:10:46.880Z,55.40
2019-03-02T04:13:15.777Z,66.73
2019-03-02T04:15:45.574Z,62.87
2019-03-02T04:18:55.574Z,55.93
2019-03-02T04:21:23.468Z,64.53
2019-03-02T04:23:56.096Z,68.40
2019-03-02T04:26:24.338Z,64.73
2019-03-02T04:28:53.259Z,67.17
2019-03-02T04:31:22.262Z,67.90
2019-03-02T04:33:51.120Z,66.30
2019-03-02T04:36:20.115Z,68.73
2019-03-02T04:38:49.246Z,68.83
2019-03-02T04:41:18.201Z,60.80
2019-03-02T04:43:47.038Z,59.17
2019-03-02T04:46:16.720Z,60.27
2019-03-02T04:48:46.082Z,67.70
2019-03-02T04:51:15.010Z,57.03
2019-03-02T04:53:43.934Z,57.13
2019-03-02T04:56:12.950Z,67.67
2019-03-02T04:58:43.715Z,61.97
2019-03-02T05:01:12.609Z,64.50
2019-03-02T05:03:41.625Z,58.27
2019-03-02T05:06:10.625Z,59.20
2019-03-02T05:08:41.213Z,54.57
2019-03-02T05:11:10.222Z,62.63
2019-03-02T05:13:39.071Z,60.47
2019-03-02T05:16:08.069Z,54.83
2019-03-02T05:18:36.933Z,58.93
2019-03-02T05:21:06.117Z,50.20
2019-03-02T05:23:34.966Z,64.80
2019-03-02T05:26:03.974Z,55.40
2019-03-02T05:28:39.571Z,55.67
2019-03-02T05:31:09.111Z,56.27
2019-03-02T05:33:38.036Z,48.03
2019-03-02T05:36:09.073Z,54.60
2019-03-02T05:38:44.834Z,67.80
2019-03-02T05:41:14.138Z,55.57
2019-03-02T05:43:43.094Z,51.20
2019-03-02T05:46:12.123Z,57.07
2019-03-02T05:48:42.865Z,54.50
2019-03-02T05:51:20.074Z,53.90
2019-03-02T05:53:49.373Z,63.07
2019-03-02T05:56:18.405Z,64.03
2019-03-02T05:58:47.711Z,56.43
2019-03-02T06:01:18.147Z,45.80
2019-03-02T06:03:47.143Z,49.93
2019-03-02T06:06:16.157Z,56.07
2019-03-02T06:08:45.015Z,43.37
2019-03-02T06:11:14.013Z,47.87
2019-03-02T06:13:42.950Z,45.20
2019-03-02T06:16:11.870Z,45.13
2019-03-02T06:18:42.583Z,49.30
2019-03-02T06:21:12.000Z,87.03
2019-03-02T06:23:41.239Z,61.70
2019-03-02T06:26:10.524Z,45.93
2019-03-02T06:28:40.026Z,50.57
2019-03-02T06:31:09.211Z,49.70
2019-03-02T06:33:40.865Z,44.73
2019-03-02T06:36:10.154Z,42.93
2019-03-02T06:38:39.467Z,43.53
2019-03-02T06:41:08.437Z,41.80
2019-03-02T06:43:37.547Z,56.40
2019-03-02T06:46:06.850Z,38.60
2019-03-02T06:48:35.901Z,45.90
2019-03-02T06:51:07.792Z,36.10
2019-03-02T06:53:37.178Z,39.20
2019-03-02T06:56:06.444Z,42.57
2019-03-02T06:58:35.370Z,78.40
2019-03-02T07:01:04.305Z,48.20
2019-03-02T07:03:33.170Z,54.40
2019-03-02T07:06:02.121Z,40.30
2019-03-02T07:08:32.815Z,53.23
2019-03-02T07:11:01.970Z,36.93
2019-03-02T07:13:31.090Z,114.10
2019-03-02T07:16:00.236Z,326.20
2019-03-02T07:18:34.274Z,33.73
2019-03-02T07:21:06.475Z,32.33
2019-03-02T07:23:34.378Z,28.30
2019-03-02T07:26:03.386Z,32.03
2019-03-02T07:28:32.559Z,31.07
2019-03-02T07:31:01.784Z,27.80
2019-03-02T07:33:30.773Z,35.07
2019-03-02T07:35:59.753Z,34.03
2019-03-02T07:38:28.701Z,28.50
2019-03-02T07:40:57.672Z,32.20
2019-03-02T07:43:26.642Z,35.10
2019-03-02T07:45:55.738Z,29.87
2019-03-02T07:48:24.593Z,27.57
2019-03-02T07:50:53.606Z,37.63
2019-03-02T07:53:25.097Z,34.33
2019-03-02T07:55:53.604Z,30.00
2019-03-02T07:58:23.840Z,30.53
2019-03-02T08:00:52.867Z,38.23
2019-03-02T08:03:22.102Z,33.23
2019-03-02T08:05:51.965Z,39.23
2019-03-02T08:08:21.213Z,39.20
2019-03-02T08:10:50.182Z,32.17
2019-03-02T08:13:19.203Z,28.97
2019-03-02T08:15:48.193Z,28.80
2019-03-02T08:18:17.223Z,24.00
2019-03-02T08:20:46.522Z,34.27
2019-03-02T08:23:15.448Z,30.80
2019-03-02T08:25:44.680Z,29.50
2019-03-02T08:28:13.643Z,25.83
2019-03-02T08:30:42.848Z,23.40
2019-03-02T08:33:11.922Z,29.23
2019-03-02T08:35:40.936Z,33.67
2019-03-02T08:38:10.062Z,27.40
2019-03-02T08:40:39.988Z,32.77
2019-03-02T08:43:13.048Z,30.63
2019-03-02T08:45:41.585Z,30.80
2019-03-02T08:48:10.582Z,37.60
2019-03-02T08:50:39.545Z,30.57
2019-03-02T08:53:08.469Z,29.40
2019-03-02T08:55:37.551Z,32.47
2019-03-02T08:58:07.156Z,30.37
2019-03-02T09:00:39.005Z,40.37
2019-03-02T09:03:06.857Z,29.70
2019-03-02T09:05:49.083Z,31.53
2019-03-02T09:08:06.642Z,36.50
2019-03-02T09:10:37.002Z,39.60
2019-03-02T09:13:06.167Z,28.03
2019-03-02T09:15:35.174Z,39.93
2019-03-02T09:18:04.170Z,40.83
2019-03-02T09:20:35.784Z,34.97
2019-03-02T09:23:04.127Z,31.37
2019-03-02T09:25:35.114Z,33.10
2019-03-02T09:28:04.173Z,35.20
2019-03-02T09:30:33.123Z,31.47
2019-03-02T09:33:02.691Z,34.10
2019-03-02T09:35:32.420Z,28.20
2019-03-02T09:38:01.838Z,30.63
2019-03-02T09:40:32.000Z,30.33
2019-03-02T09:43:01.152Z,32.60
2019-03-02T09:45:30.766Z,30.97
2019-03-02T09:48:00.136Z,32.80
2019-03-02T09:50:29.125Z,37.30
2019-03-02T09:52:58.406Z,38.53
2019-03-02T09:55:31.641Z,36.17
2019-03-02T09:58:00.879Z,36.77
2019-03-02T10:00:30.959Z,28.77
2019-03-02T10:03:05.175Z,30.43
2019-03-02T10:05:34.510Z,39.47
2019-03-02T10:08:03.453Z,31.60
2019-03-02T10:10:33.326Z,30.27
2019-03-02T10:13:02.514Z,25.17
2019-03-02T10:15:31.550Z,25.10
2019-03-02T10:18:00.568Z,33.70
2019-03-02T10:20:29.579Z,24.93
2019-03-02T10:22:58.508Z,27.37
2019-03-02T10:25:32.028Z,27.80
2019-03-02T10:27:58.812Z,29.07
2019-03-02T10:30:27.894Z,26.73
2019-03-02T10:32:57.363Z,28.47
2019-03-02T10:35:26.482Z,25.40
2019-03-02T10:37:55.423Z,26.10
2019-03-02T10:40:24.629Z,24.70
2019-03-02T10:42:53.558Z,27.63
2019-03-02T10:45:23.842Z,27.57
2019-03-02T10:47:54.077Z,20.60
2019-03-02T10:50:24.956Z,24.13
2019-03-02T10:52:54.173Z,23.00
2019-03-02T10:55:23.208Z,22.60
2019-03-02T10:57:52.778Z,28.20
2019-03-02T11:00:29.517Z,20.80
2019-03-02T11:02:57.929Z,22.67
2019-03-02T11:05:44.698Z,22.47
2019-03-02T11:08:32.763Z,20.50
2019-03-02T11:11:19.426Z,22.43
2019-03-02T11:13:59.399Z,23.40
2019-03-02T11:16:41.136Z,23.33
2019-03-02T11:19:43.848Z,14.50
2019-03-02T11:22:38.506Z,20.63
2019-03-02T11:25:26.825Z,21.20
2019-03-02T11:28:06.169Z,17.73
2019-03-02T11:30:54.238Z,20.67
2019-03-02T11:33:42.883Z,21.10
2019-03-02T11:36:36.993Z,20.33
2019-03-02T11:39:27.789Z,29.77
2019-03-02T11:42:04.526Z,19.60
2019-03-02T11:45:07.750Z,17.00
2019-03-02T11:48:02.675Z,15.50
2019-03-02T11:50:42.485Z,17.20
2019-03-02T11:53:19.859Z,17.17
2019-03-02T11:56:10.814Z,26.37
2019-03-02T11:59:05.900Z,15.37
2019-03-02T12:01:46.793Z,15.97
2019-03-02T12:04:37.762Z,19.33
2019-03-02T12:07:25.085Z,26.80
2019-03-02T12:10:11.733Z,19.07
2019-03-02T12:13:01.210Z,20.40
2019-03-02T12:15:40.480Z,19.30
2019-03-02T12:18:34.610Z,17.47
2019-03-02T12:21:17.942Z,16.30
2019-03-02T12:23:55.862Z,22.63
2019-03-02T12:26:47.327Z,19.00
2019-03-02T12:29:35.617Z,21.50
2019-03-02T12:32:24.102Z,21.17
2019-03-02T12:35:18.041Z,25.73
2019-03-02T12:37:54.654Z,16.50
2019-03-02T12:40:29.638Z,19.93
2019-03-02T12:43:19.666Z,19.03
2019-03-02T12:46:05.241Z,19.47
2019-03-02T12:48:43.466Z,15.17
2019-03-02T12:51:27.645Z,26.53
2019-03-02T12:54:14.389Z,16.00
2019-03-02T12:56:58.916Z,18.70
2019-03-02T12:59:59.201Z,18.70
2019-03-02T13:02:36.638Z,24.07
2019-03-02T13:05:17.756Z,20.20
2019-03-02T13:08:04.192Z,21.90
2019-03-02T13:10:56.410Z,17.00
2019-03-02T13:13:42.618Z,17.70
2019-03-02T13:16:42.969Z,16.20
2019-03-02T13:19:18.114Z,17.70
2019-03-02T13:22:05.598Z,14.20
2019-03-02T13:24:53.693Z,17.80
2019-03-02T13:27:41.254Z,15.83
2019-03-02T13:30:35.922Z,22.03
2019-03-02T13:33:36.028Z,15.40
2019-03-02T13:36:23.734Z,19.47
2019-03-02T13:39:14.424Z,18.30
2019-03-02T13:41:50.370Z,16.43
2019-03-02T13:44:42.426Z,17.30
2019-03-02T13:47:40.102Z,13.90
2019-03-02T13:50:26.779Z,15.30
2019-03-02T13:53:33.994Z,16.30
2019-03-02T13:56:12.674Z,14.83
2019-03-02T13:59:18.876Z,14.50
2019-03-02T14:02:15.734Z,21.30
2019-03-02T14:05:15.552Z,17.80
2019-03-02T14:08:04.197Z,21.17
2019-03-02T14:10:50.821Z,15.83
2019-03-02T14:13:37.721Z,14.57
2019-03-02T14:16:35.387Z,16.67
2019-03-02T14:19:22.770Z,24.63
2019-03-02T14:22:03.029Z,18.80
2019-03-02T14:24:39.239Z,17.73
2019-03-02T14:27:30.608Z,18.00
2019-03-02T14:30:04.847Z,25.80
2019-03-02T14:32:51.984Z,17.00
2019-03-02T14:35:38.661Z,15.83
2019-03-02T14:38:23.801Z,18.80
2019-03-02T14:41:06.822Z,14.73
2019-03-02T14:44:03.894Z,109.50
2019-03-02T14:46:51.882Z,20.30
2019-03-02T14:49:39.198Z,55.47
2019-03-02T14:52:20.620Z,23.13
2019-03-02T14:54:58.882Z,14.10
2019-03-02T14:57:56.742Z,16.40
2019-03-02T15:00:33.278Z,15.40
2019-03-02T15:03:20.381Z,21.70
2019-03-02T15:06:08.725Z,21.33
2019-03-02T15:08:41.177Z,9.47
2019-03-02T15:11:30.282Z,24.87
2019-03-02T15:14:21.122Z,22.07
2019-03-02T15:17:09.094Z,19.27
2019-03-02T15:19:57.821Z,12.47
2019-03-02T15:22:31.458Z,14.20
2019-03-02T15:25:08.562Z,23.23
2019-03-02T15:27:59.982Z,23.97
2019-03-02T15:30:59.259Z,13.10
2019-03-02T15:33:56.187Z,15.20
2019-03-02T15:36:44.062Z,16.47
2019-03-02T15:39:38.663Z,20.00
2019-03-02T15:42:22.897Z,22.43
2019-03-02T15:44:59.681Z,12.03
2019-03-02T15:47:47.435Z,10.90
2019-03-02T15:50:42.524Z,10.83
2019-03-02T15:53:40.550Z,14.43
2019-03-02T15:56:15.425Z,12.00
2019-03-02T15:58:51.464Z,11.70
2019-03-02T16:01:38.406Z,16.43
2019-03-02T16:04:13.926Z,16.30
2019-03-02T16:07:04.022Z,14.60
2019-03-02T16:09:41.105Z,16.50
2019-03-02T16:12:17.795Z,11.70
2019-03-02T16:15:12.514Z,9.60
2019-03-02T16:17:46.722Z,13.60
2019-03-02T16:20:53.148Z,10.53
2019-03-02T16:23:30.279Z,12.30
2019-03-02T16:26:08.108Z,14.73
2019-03-02T16:28:56.123Z,16.70
2019-03-02T16:31:41.289Z,12.77
2019-03-02T16:34:33.555Z,17.40
2019-03-02T16:37:20.497Z,11.27
2019-03-02T16:40:15.848Z,12.17
2019-03-02T16:43:14.223Z,11.10
2019-03-02T16:46:05.787Z,13.53
2019-03-02T16:48:57.142Z,15.07
2019-03-02T16:51:45.694Z,12.60
2019-03-02T16:54:39.758Z,14.07
2019-03-02T16:57:17.328Z,16.53
2019-03-02T17:00:08.801Z,17.97
2019-03-02T17:02:55.402Z,11.60
2019-03-02T17:05:34.369Z,12.93
2019-03-02T17:08:31.155Z,11.83
2019-03-02T17:11:08.426Z,25.07
2019-03-02T17:13:53.108Z,18.10
2019-03-02T17:16:44.018Z,13.60
2019-03-02T17:19:32.094Z,9.30
2019-03-02T17:22:20.187Z,13.57
2019-03-02T17:25:17.523Z,19.97
2019-03-02T17:28:04.165Z,21.13
2019-03-02T17:30:58.126Z,19.07
2019-03-02T17:33:48.323Z,19.77
2019-03-02T17:36:38.260Z,13.93
2019-03-02T17:39:13.735Z,25.33
2019-03-02T17:41:58.715Z,15.50
2019-03-02T17:44:46.874Z,14.20
2019-03-02T17:47:33.951Z,12.30
2019-03-02T17:50:25.294Z,20.10
2019-03-02T17:53:13.217Z,12.87
2019-03-02T17:56:07.357Z,12.13
2019-03-02T17:58:54.038Z,18.60
2019-03-02T18:01:37.730Z,14.77
2019-03-02T18:04:20.217Z,18.40
2019-03-02T18:07:07.926Z,22.00
2019-03-02T18:09:43.454Z,11.63
2019-03-02T18:12:18.939Z,18.00
2019-03-02T18:15:01.097Z,12.23
2019-03-02T18:17:56.996Z,10.87
2019-03-02T18:20:26.115Z,15.03
2019-03-02T18:22:55.042Z,22.37
2019-03-02T18:25:24.038Z,17.97
2019-03-02T18:27:53.387Z,12.87
2019-03-02T18:30:22.634Z,32.03
2019-03-02T18:32:53.490Z,18.17
2019-03-02T18:35:22.503Z,16.17
2019-03-02T18:37:51.873Z,11.50
2019-03-02T18:40:20.949Z,24.80
2019-03-02T18:42:49.970Z,19.47
2019-03-02T18:45:18.976Z,13.50
2019-03-02T18:47:48.189Z,31.87
2019-03-02T18:50:42.087Z,21.47
2019-03-02T18:53:11.307Z,26.27
2019-03-02T18:55:41.046Z,22.50
2019-03-02T18:58:10.076Z,11.20
2019-03-02T19:00:45.841Z,15.50
2019-03-02T19:03:14.826Z,11.70
2019-03-02T19:05:46.188Z,12.53
2019-03-02T19:08:15.186Z,12.67
2019-03-02T19:10:45.278Z,15.27
2019-03-02T19:13:14.218Z,11.17
2019-03-02T19:15:43.241Z,10.03
2019-03-02T19:18:12.271Z,9.70
2019-03-02T19:20:41.283Z,18.27
2019-03-02T19:23:10.280Z,12.13
2019-03-02T19:25:39.250Z,7.00
2019-03-02T19:28:08.870Z,5.47
2019-03-02T19:30:38.094Z,5.27
2019-03-02T19:33:07.590Z,7.27
2019-03-02T19:35:36.525Z,6.57
2019-03-02T19:38:05.948Z,11.50
2019-03-02T19:40:35.467Z,7.53
2019-03-02T19:43:04.484Z,6.60
2019-03-02T19:45:33.574Z,9.90
2019-03-02T19:48:02.611Z,8.00
2019-03-02T19:50:31.950Z,7.27
2019-03-02T19:53:03.597Z,5.73
2019-03-02T19:55:32.920Z,13.90
2019-03-02T19:58:02.405Z,9.20
2019-03-02T20:00:31.807Z,7.27
2019-03-02T20:03:00.851Z,12.20
2019-03-02T20:05:29.930Z,11.13
2019-03-02T20:07:59.001Z,15.20
2019-03-02T20:10:28.322Z,10.63
2019-03-02T20:12:57.327Z,16.80
2019-03-02T20:15:26.360Z,7.03
2019-03-02T20:17:55.422Z,20.77
2019-03-02T20:20:24.425Z,6.43
2019-03-02T20:22:53.570Z,5.10
2019-03-02T20:25:22.617Z,9.47
2019-03-02T20:27:51.540Z,8.97
2019-03-02T20:30:20.553Z,7.10
2019-03-02T20:32:49.531Z,6.53
2019-03-02T20:35:20.434Z,8.97
2019-03-02T20:37:49.443Z,11.53
2019-03-02T20:40:19.658Z,4.00
2019-03-02T20:42:48.689Z,9.53
2019-03-02T20:45:18.221Z,5.50
2019-03-02T20:47:47.241Z,5.07
2019-03-02T20:50:17.001Z,5.57
2019-03-02T20:52:46.321Z,5.00
2019-03-02T20:55:15.800Z,8.43
2019-03-02T20:57:45.052Z,4.30
2019-03-02T21:00:17.140Z,4.07
2019-03-02T21:02:46.327Z,5.37
2019-03-02T21:05:15.503Z,5.10
2019-03-02T21:07:44.843Z,3.80
2019-03-02T21:10:15.215Z,4.00
2019-03-02T21:12:44.145Z,2.70
2019-03-02T21:15:16.453Z,5.00
2019-03-02T21:17:45.485Z,6.80
2019-03-02T21:20:16.927Z,3.53
2019-03-02T21:22:45.946Z,3.33
2019-03-02T21:25:15.047Z,4.83
2019-03-02T21:27:44.366Z,7.03
2019-03-02T21:30:14.931Z,3.80
2019-03-02T21:32:44.291Z,7.40
2019-03-02T21:35:13.448Z,6.53
2019-03-02T21:37:42.430Z,5.83
2019-03-02T21:40:14.214Z,5.80
2019-03-02T21:42:43.534Z,2.07
2019-03-02T21:45:14.629Z,7.60
2019-03-02T21:47:44.008Z,4.63
2019-03-02T21:50:15.078Z,2.83
2019-03-02T21:52:44.140Z,3.30
2019-03-02T21:55:13.327Z,4.27
2019-03-02T21:57:42.325Z,2.23
2019-03-02T22:00:14.934Z,2.43
2019-03-02T22:02:43.954Z,4.27
2019-03-02T22:05:13.282Z,5.80
2019-03-02T22:07:42.285Z,8.87
2019-03-02T22:10:14.629Z,3.13
2019-03-02T22:12:43.611Z,6.23
2019-03-02T22:15:13.393Z,12.30
2019-03-02T22:17:43.985Z,7.13
2019-03-02T22:20:13.076Z,5.03
2019-03-02T22:22:42.149Z,3.00
2019-03-02T22:25:13.281Z,1.73
2019-03-02T22:27:42.285Z,3.33
2019-03-02T22:30:14.653Z,3.67
2019-03-02T22:32:43.898Z,5.40
2019-03-02T22:35:12.890Z,7.30
2019-03-02T22:37:41.875Z,5.73
2019-03-02T22:40:13.669Z,4.60
2019-03-02T22:42:42.915Z,3.60
2019-03-02T22:45:12.783Z,2.90
2019-03-02T22:47:41.783Z,4.57
2019-03-02T22:50:13.113Z,2.20
2019-03-02T22:52:41.962Z,2.53
2019-03-02T22:55:12.477Z,6.20
2019-03-02T22:57:41.787Z,2.93
2019-03-02T23:01:04.470Z,3.80
2019-03-02T23:03:32.006Z,3.73
2019-03-02T23:06:00.934Z,4.00
2019-03-02T23:08:30.212Z,7.77
2019-03-02T23:10:59.208Z,7.83
2019-03-02T23:13:28.201Z,5.17
2019-03-02T23:15:57.138Z,3.80
2019-03-02T23:18:26.177Z,4.87
2019-03-02T23:20:55.166Z,2.80
2019-03-02T23:23:24.105Z,6.10
2019-03-02T23:25:53.022Z,2.40
2019-03-02T23:28:21.932Z,2.50
2019-03-02T23:30:50.808Z,5.10
2019-03-02T23:33:19.719Z,2.60
2019-03-02T23:35:48.707Z,2.80
2019-03-02T23:38:17.737Z,4.67
2019-03-02T23:40:46.730Z,7.03
2019-03-02T23:43:15.579Z,6.10
2019-03-02T23:45:44.665Z,2.67
2019-03-02T23:48:13.587Z,3.87
2019-03-02T23:50:42.501Z,4.63
2019-03-02T23:53:11.461Z,4.87
2019-03-02T23:55:40.537Z,2.80
2019-03-02T23:58:09.448Z,3.43
